Time;durP1;ratioP1;P1;durP2;ratioP2;P2;SDS_P1;SDS_P2;PMS_P1;PMS_P2;Temp;Humidity;BMP_temperature;BMP_pressure;BME280_temperature;BME280_humidity;BME280_pressure;Samples;Min_cycle;Max_cycle;Signal;HPM_P1;HPM_P2
2021/06/26 00:01:00;;;;;;;7.82;7.03;;;;;;;;;;5117477;27;20418;-86
2021/06/26 00:03:27;;;;;;;18.90;7.78;;;;;;;;;;5117830;27;20365;-83
2021/06/26 00:05:54;;;;;;;8.50;7.60;;;;;;;;;;5116361;27;20396;-84
2021/06/26 00:08:20;;;;;;;10.15;8.00;;;;;;;;;;5134934;27;20369;-84
2021/06/26 00:10:46;;;;;;;8.10;7.35;;;;;;;;;;5116192;27;20719;-84
2021/06/26 00:13:13;;;;;;;10.20;8.43;;;;;;;;;;5135339;27;20436;-85
2021/06/26 00:15:39;;;;;;;9.20;8.23;;;;;;;;;;5117220;27;20376;-86
2021/06/26 00:18:05;;;;;;;9.43;8.40;;;;;;;;;;5116405;27;20372;-84
2021/06/26 00:20:31;;;;;;;9.38;8.57;;;;;;;;;;5134409;27;20393;-83
2021/06/26 00:22:57;;;;;;;9.10;8.30;;;;;;;;;;5099005;27;20416;-84
2021/06/26 00:25:24;;;;;;;9.45;8.50;;;;;;;;;;5115547;27;20984;-85
2021/06/26 00:27:51;;;;;;;9.50;8.70;;;;;;;;;;5134675;27;20357;-85
2021/06/26 00:30:17;;;;;;;9.75;8.75;;;;;;;;;;5116266;27;20361;-84
2021/06/26 00:32:43;;;;;;;9.68;8.68;;;;;;;;;;5116211;27;20723;-84
2021/06/26 00:35:10;;;;;;;9.50;8.60;;;;;;;;;;5134147;27;20393;-85
2021/06/26 00:37:36;;;;;;;9.48;8.60;;;;;;;;;;5116067;27;20373;-85
2021/06/26 00:40:03;;;;;;;9.98;9.07;;;;;;;;;;5116444;27;20439;-83
2021/06/26 00:42:33;;;;;;;9.83;8.83;;;;;;;;;;5116445;27;20373;-84
2021/06/26 00:44:59;;;;;;;10.00;9.20;;;;;;;;;;5115836;27;20396;-84
2021/06/26 00:47:26;;;;;;;12.25;9.55;;;;;;;;;;5115809;27;20365;-83
2021/06/26 00:49:52;;;;;;;11.50;10.40;;;;;;;;;;5115039;28;20431;-85
2021/06/26 00:52:19;;;;;;;10.63;9.63;;;;;;;;;;5115539;27;20364;-85
2021/06/26 00:54:45;;;;;;;11.68;10.68;;;;;;;;;;5115907;27;20867;-84
2021/06/26 00:57:11;;;;;;;10.90;9.90;;;;;;;;;;5115616;27;20427;-84
2021/06/26 00:59:38;;;;;;;10.52;9.43;;;;;;;;;;5115760;27;20784;-84
2021/06/26 01:02:06;;;;;;;10.60;9.70;;;;;;;;;;5115181;27;20455;-84
2021/06/26 01:04:33;;;;;;;10.43;9.50;;;;;;;;;;5115581;27;20396;-84
2021/06/26 01:06:59;;;;;;;10.75;9.65;;;;;;;;;;5115804;27;20396;-84
2021/06/26 01:09:25;;;;;;;11.43;10.38;;;;;;;;;;5133507;27;20383;-85
2021/06/26 01:11:57;;;;;;;11.38;10.38;;;;;;;;;;5115493;27;20365;-84
2021/06/26 01:14:24;;;;;;;11.30;10.13;;;;;;;;;;5133687;27;20418;-84
2021/06/26 01:16:50;;;;;;;11.48;10.50;;;;;;;;;;5115580;27;20878;-83
2021/06/26 01:19:16;;;;;;;11.73;10.63;;;;;;;;;;5114657;27;20383;-84
2021/06/26 01:21:42;;;;;;;11.75;10.75;;;;;;;;;;5115025;27;20761;-84
2021/06/26 01:24:09;;;;;;;13.05;11.68;;;;;;;;;;5133272;27;20381;-85
2021/06/26 01:26:36;;;;;;;11.10;10.10;;;;;;;;;;5114243;27;20755;-83
2021/06/26 01:29:12;;;;;;;11.68;10.57;;;;;;;;;;5114286;27;20369;-84
2021/06/26 01:31:38;;;;;;;11.82;10.73;;;;;;;;;;5114143;27;20368;-83
2021/06/26 01:34:04;;;;;;;12.00;10.90;;;;;;;;;;5114891;27;20433;-84
2021/06/26 01:36:30;;;;;;;11.60;10.60;;;;;;;;;;5114821;27;20361;-84
2021/06/26 01:38:57;;;;;;;11.93;10.93;;;;;;;;;;5114678;27;20369;-85
2021/06/26 01:41:24;;;;;;;12.50;11.20;;;;;;;;;;5114576;27;20361;-85
2021/06/26 01:43:50;;;;;;;13.73;11.27;;;;;;;;;;5114733;27;20850;-86
2021/06/26 01:46:16;;;;;;;12.60;11.35;;;;;;;;;;5115223;27;20364;-85
2021/06/26 01:49:20;;;;;;;12.68;11.57;;;;;;;;;;5132978;27;20719;-85
2021/06/26 01:51:47;;;;;;;11.68;10.70;;;;;;;;;;5116070;27;20372;-85
2021/06/26 01:54:35;;;;;;;14.23;11.07;;;;;;;;;;5115617;27;20380;-86
2021/06/26 01:57:13;;;;;;;12.30;11.20;;;;;;;;;;5133591;27;20703;-85
2021/06/26 01:59:40;;;;;;;12.85;11.65;;;;;;;;;;5115280;27;20373;-86
2021/06/26 02:02:07;;;;;;;12.43;11.32;;;;;;;;;;5114346;27;20448;-85
2021/06/26 02:04:33;;;;;;;12.35;11.25;;;;;;;;;;5113674;27;20438;-86
2021/06/26 02:06:59;;;;;;;12.25;11.15;;;;;;;;;;5114369;27;20372;-86
2021/06/26 02:09:25;;;;;;;11.95;10.95;;;;;;;;;;5114178;27;20456;-85
2021/06/26 02:11:51;;;;;;;12.77;11.57;;;;;;;;;;5115215;27;20365;-85
2021/06/26 02:14:58;;;;;;;12.40;11.33;;;;;;;;;;5115560;27;20471;-86
2021/06/26 02:17:51;;;;;;;12.00;11.00;;;;;;;;;;5076352;27;20469;-85
2021/06/26 02:20:17;;;;;;;12.40;11.25;;;;;;;;;;5117860;27;20349;-86
2021/06/26 02:22:48;;;;;;;12.75;11.65;;;;;;;;;;5120284;27;20765;-85
2021/06/26 02:25:16;;;;;;;12.55;11.40;;;;;;;;;;5120268;27;20790;-86
2021/06/26 02:27:42;;;;;;;13.00;11.70;;;;;;;;;;5119788;27;20376;-86
2021/06/26 02:30:09;;;;;;;12.90;11.82;;;;;;;;;;5119851;27;20384;-87
2021/06/26 02:32:35;;;;;;;13.20;12.00;;;;;;;;;;5119136;27;20403;-86
2021/06/26 02:35:01;;;;;;;13.15;11.80;;;;;;;;;;5115261;27;20361;-87
2021/06/26 02:37:27;;;;;;;12.75;11.45;;;;;;;;;;5113197;27;20384;-88
2021/06/26 02:39:53;;;;;;;13.98;12.77;;;;;;;;;;5113590;27;20738;-86
2021/06/26 02:42:19;;;;;;;13.43;12.23;;;;;;;;;;5114406;27;20387;-86
2021/06/26 02:44:45;;;;;;;14.23;12.93;;;;;;;;;;5115064;27;20546;-87
2021/06/26 02:47:11;;;;;;;14.07;12.77;;;;;;;;;;5114429;27;20931;-85
2021/06/26 02:49:40;;;;;;;12.83;11.70;;;;;;;;;;5114530;27;20432;-87
2021/06/26 02:52:06;;;;;;;13.07;11.93;;;;;;;;;;5114674;27;20750;-86
2021/06/26 02:54:43;;;;;;;12.23;11.15;;;;;;;;;;5097651;27;20365;-86
2021/06/26 02:57:09;;;;;;;12.77;11.68;;;;;;;;;;5113910;28;20495;-84
2021/06/26 02:59:38;;;;;;;13.65;12.35;;;;;;;;;;5114025;27;20464;-86
2021/06/26 03:02:04;;;;;;;13.20;12.00;;;;;;;;;;5113801;27;20458;-87
2021/06/26 03:04:30;;;;;;;12.77;11.60;;;;;;;;;;5114146;28;20389;-86
2021/06/26 03:06:56;;;;;;;12.30;11.10;;;;;;;;;;5113906;28;20365;-88
2021/06/26 03:09:59;;;;;;;12.43;11.35;;;;;;;;;;5113727;28;20460;-86
2021/06/26 03:12:51;;;;;;;13.32;12.02;;;;;;;;;;5130527;27;20369;-86
2021/06/26 03:22:07;;;;;;;12.57;11.47;;;;;;;;;;5112948;27;20422;-85
2021/06/26 03:24:34;;;;;;;11.45;10.35;;;;;;;;;;5132322;27;20471;-86
2021/06/26 03:27:00;;;;;;;12.77;11.48;;;;;;;;;;5117450;27;20389;-85
2021/06/26 03:29:45;;;;;;;11.40;10.45;;;;;;;;;;5117862;27;20396;-87
2021/06/26 03:32:11;;;;;;;11.18;10.23;;;;;;;;;;5117434;27;20361;-86
2021/06/26 03:34:43;;;;;;;10.50;9.60;;;;;;;;;;5118055;27;20411;-84
2021/06/26 03:37:29;;;;;;;11.13;10.20;;;;;;;;;;5133919;27;20742;-88
2021/06/26 03:40:19;;;;;;;11.87;10.77;;;;;;;;;;5118140;27;20397;-86
2021/06/26 03:43:35;;;;;;;10.23;9.32;;;;;;;;;;5101724;27;20375;-86
2021/06/26 03:46:28;;;;;;;10.27;9.40;;;;;;;;;;5016782;28;20389;-87
2021/06/26 03:49:38;;;;;;;11.02;10.07;;;;;;;;;;5016953;28;20385;-86
2021/06/26 03:55:52;;;;;;;11.25;10.35;;;;;;;;;;5054573;28;20358;-87
2021/06/26 03:58:27;;;;;;;11.27;10.27;;;;;;;;;;5120076;27;20387;-85
2021/06/26 04:00:56;;;;;;;12.73;11.43;;;;;;;;;;5120304;27;20369;-87
2021/06/26 04:03:46;;;;;;;13.07;11.98;;;;;;;;;;5121860;27;20389;-86
2021/06/26 04:06:15;;;;;;;13.53;12.43;;;;;;;;;;5120782;27;20379;-85
2021/06/26 04:08:43;;;;;;;12.50;11.30;;;;;;;;;;5123649;27;20353;-84
2021/06/26 04:11:28;;;;;;;13.43;12.23;;;;;;;;;;5124010;27;20386;-87
2021/06/26 04:14:36;;;;;;;13.05;11.85;;;;;;;;;;5142159;27;20362;-87
2021/06/26 04:17:49;;;;;;;13.25;11.98;;;;;;;;;;5099601;28;20425;-84
2021/06/26 04:20:15;;;;;;;13.85;12.57;;;;;;;;;;5093897;28;20502;-84
2021/06/26 04:22:46;;;;;;;13.00;12.00;;;;;;;;;;5140310;27;20447;-86
2021/06/26 04:25:18;;;;;;;14.43;13.07;;;;;;;;;;5121329;27;20391;-85
2021/06/26 04:27:50;;;;;;;13.87;12.57;;;;;;;;;;5120674;27;20361;-85
2021/06/26 04:30:16;;;;;;;12.63;11.52;;;;;;;;;;5120429;27;20418;-86
2021/06/26 04:33:06;;;;;;;14.60;13.10;;;;;;;;;;5136381;27;20356;-85
2021/06/26 04:36:01;;;;;;;13.77;12.47;;;;;;;;;;5137743;27;20372;-86
2021/06/26 04:38:27;;;;;;;14.23;12.83;;;;;;;;;;5121161;27;20360;-86
2021/06/26 04:40:53;;;;;;;13.15;11.95;;;;;;;;;;5120096;27;20454;-85
2021/06/26 04:43:20;;;;;;;13.57;12.48;;;;;;;;;;5118212;27;20425;-84
2021/06/26 04:45:46;;;;;;;13.20;12.02;;;;;;;;;;5117975;27;20388;-84
2021/06/26 04:48:13;;;;;;;13.75;12.50;;;;;;;;;;5117366;27;20739;-84
2021/06/26 04:50:39;;;;;;;13.90;12.63;;;;;;;;;;5116994;27;20507;-84
2021/06/26 04:53:05;;;;;;;13.70;12.50;;;;;;;;;;5116937;27;20896;-84
2021/06/26 04:55:31;;;;;;;13.35;12.15;;;;;;;;;;5116644;27;20404;-84
2021/06/26 04:57:57;;;;;;;13.60;12.30;;;;;;;;;;5134671;27;20445;-85
2021/06/26 05:00:23;;;;;;;12.13;10.93;;;;;;;;;;5115998;27;20357;-85
2021/06/26 05:02:49;;;;;;;12.95;11.75;;;;;;;;;;5134022;27;20357;-84
2021/06/26 05:05:16;;;;;;;11.07;10.13;;;;;;;;;;5116588;27;20385;-85
2021/06/26 05:07:42;;;;;;;12.00;11.00;;;;;;;;;;5116756;27;20502;-86
2021/06/26 05:10:10;;;;;;;12.57;11.57;;;;;;;;;;5116420;27;20446;-85
2021/06/26 05:12:36;;;;;;;13.00;11.85;;;;;;;;;;5115406;27;20369;-86
2021/06/26 05:15:02;;;;;;;12.65;11.45;;;;;;;;;;5116150;27;20373;-84
2021/06/26 05:17:28;;;;;;;11.43;10.43;;;;;;;;;;5134621;27;20361;-83
2021/06/26 05:19:54;;;;;;;11.00;10.10;;;;;;;;;;5134058;27;20867;-84
2021/06/26 05:22:20;;;;;;;10.60;9.50;;;;;;;;;;5133413;27;20418;-84
2021/06/26 05:24:46;;;;;;;11.02;10.00;;;;;;;;;;5132946;27;20424;-84
2021/06/26 05:27:12;;;;;;;12.13;10.20;;;;;;;;;;5115464;27;20691;-84
2021/06/26 05:29:42;;;;;;;9.88;8.98;;;;;;;;;;5133424;27;20357;-86
2021/06/26 05:32:10;;;;;;;10.68;9.55;;;;;;;;;;5114608;27;20886;-85
2021/06/26 05:34:36;;;;;;;9.85;8.85;;;;;;;;;;5114820;27;20361;-86
2021/06/26 05:37:02;;;;;;;11.00;8.65;;;;;;;;;;5114386;27;20369;-84
2021/06/26 05:39:29;;;;;;;9.80;8.80;;;;;;;;;;5133130;27;20369;-85
2021/06/26 05:41:55;;;;;;;9.20;8.27;;;;;;;;;;5114583;27;20857;-84
2021/06/26 05:44:21;;;;;;;9.95;8.95;;;;;;;;;;5133468;27;20432;-86
2021/06/26 05:46:50;;;;;;;8.23;7.47;;;;;;;;;;5114762;27;20358;-84
2021/06/26 05:49:16;;;;;;;8.40;7.60;;;;;;;;;;5114373;27;20360;-85
2021/06/26 05:51:42;;;;;;;9.05;8.25;;;;;;;;;;5114311;27;20367;-84
2021/06/26 05:54:08;;;;;;;9.57;8.68;;;;;;;;;;5114975;27;20502;-83
2021/06/26 05:56:34;;;;;;;9.32;8.43;;;;;;;;;;5132419;27;21062;-87
2021/06/26 05:59:02;;;;;;;8.93;8.23;;;;;;;;;;5114290;27;20373;-86
2021/06/26 06:01:37;;;;;;;9.07;8.07;;;;;;;;;;5114803;27;20414;-86
2021/06/26 06:04:26;;;;;;;11.43;8.40;;;;;;;;;;5114349;27;20353;-86
2021/06/26 06:06:52;;;;;;;9.07;8.07;;;;;;;;;;5052401;28;20449;-88
2021/06/26 06:09:44;;;;;;;17.17;9.45;;;;;;;;;;5126088;27;20868;-87
2021/06/26 06:12:31;;;;;;;9.30;8.00;;;;;;;;;;5124141;27;20377;-88
2021/06/26 06:14:57;;;;;;;8.95;7.85;;;;;;;;;;5131073;27;20753;-87
2021/06/26 06:17:23;;;;;;;10.20;7.90;;;;;;;;;;5130507;27;20377;-85
2021/06/26 06:19:49;;;;;;;15.13;8.23;;;;;;;;;;5131438;27;20441;-89
2021/06/26 06:22:15;;;;;;;9.02;7.40;;;;;;;;;;5131166;27;20369;-85
2021/06/26 06:24:41;;;;;;;8.77;7.22;;;;;;;;;;5130993;27;20411;-87
2021/06/26 06:27:07;;;;;;;7.65;6.43;;;;;;;;;;5123717;27;20397;-88
2021/06/26 06:29:33;;;;;;;6.90;6.20;;;;;;;;;;5128514;27;20452;-85
2021/06/26 06:31:59;;;;;;;6.93;5.88;;;;;;;;;;5110342;28;20378;-86
2021/06/26 06:34:25;;;;;;;6.30;5.73;;;;;;;;;;5110310;28;20367;-86
2021/06/26 06:36:51;;;;;;;7.95;5.55;;;;;;;;;;5110884;28;20374;-87
2021/06/26 06:39:19;;;;;;;21.95;6.53;;;;;;;;;;5110304;28;20944;-88
2021/06/26 06:41:45;;;;;;;11.50;5.88;;;;;;;;;;5109409;28;20385;-85
2021/06/26 06:44:12;;;;;;;6.88;5.22;;;;;;;;;;5110312;28;20395;-90
2021/06/26 06:46:39;;;;;;;6.88;5.25;;;;;;;;;;5111416;28;20371;-89
2021/06/26 06:49:20;;;;;;;6.03;4.97;;;;;;;;;;5094859;28;20967;-88
2021/06/26 06:51:48;;;;;;;64.28;10.30;;;;;;;;;;5110595;28;20363;-88
2021/06/26 06:54:15;;;;;;;6.40;4.60;;;;;;;;;;5109146;28;20469;-89
2021/06/26 06:57:05;;;;;;;6.10;4.90;;;;;;;;;;5110603;28;20375;-88
2021/06/26 06:59:33;;;;;;;5.82;5.20;;;;;;;;;;5110952;28;20355;-87
2021/06/26 07:01:59;;;;;;;6.80;4.70;;;;;;;;;;5108825;28;20367;-87
2021/06/26 07:04:25;;;;;;;7.22;5.45;;;;;;;;;;5109853;28;20757;-88
2021/06/26 07:06:52;;;;;;;5.57;4.63;;;;;;;;;;5111496;28;20351;-84
2021/06/26 07:09:18;;;;;;;5.70;5.10;;;;;;;;;;5110868;28;20363;-87
2021/06/26 07:11:44;;;;;;;8.53;5.97;;;;;;;;;;5109369;28;20764;-87
2021/06/26 07:14:31;;;;;;;6.63;5.45;;;;;;;;;;5111109;28;20382;-89
2021/06/26 07:17:01;;;;;;;5.00;4.50;;;;;;;;;;5103119;28;20381;-88
2021/06/26 07:19:28;;;;;;;9.35;5.40;;;;;;;;;;5110376;28;20373;-90
2021/06/26 07:21:54;;;;;;;5.85;5.20;;;;;;;;;;5108989;28;20721;-87
2021/06/26 07:24:20;;;;;;;8.68;4.80;;;;;;;;;;5108284;28;20402;-88
2021/06/26 07:26:47;;;;;;;5.65;4.78;;;;;;;;;;5108978;28;20929;-88
2021/06/26 07:29:13;;;;;;;5.33;4.27;;;;;;;;;;5109092;28;20389;-89
2021/06/26 07:31:42;;;;;;;5.25;4.43;;;;;;;;;;5109230;28;20362;-90
2021/06/26 07:34:49;;;;;;;8.23;5.28;;;;;;;;;;5111135;28;20375;-90
2021/06/26 07:38:06;;;;;;;5.18;4.68;;;;;;;;;;5110801;28;20450;-89
2021/06/26 07:40:59;;;;;;;5.30;4.80;;;;;;;;;;5128293;28;20376;-89
2021/06/26 07:43:27;;;;;;;7.88;4.85;;;;;;;;;;5084455;28;20380;-89
2021/06/26 07:46:18;;;;;;;6.60;4.40;;;;;;;;;;5133792;27;20392;-88
2021/06/26 07:49:24;;;;;;;7.50;4.43;;;;;;;;;;5132113;27;20843;-89
2021/06/26 07:52:13;;;;;;;7.20;5.82;;;;;;;;;;5128941;27;20368;-88
2021/06/26 07:54:39;;;;;;;6.85;5.10;;;;;;;;;;5115803;28;20370;-88
2021/06/26 07:57:06;;;;;;;5.65;5.15;;;;;;;;;;5129376;28;20365;-87
2021/06/26 07:59:32;;;;;;;7.45;5.32;;;;;;;;;;5128607;27;20854;-89
2021/06/26 08:01:58;;;;;;;7.25;5.20;;;;;;;;;;5134001;27;20778;-86
2021/06/26 08:04:24;;;;;;;4.82;4.30;;;;;;;;;;5116319;27;20397;-89
2021/06/26 08:06:53;;;;;;;5.10;4.60;;;;;;;;;;5135144;27;20406;-87
2021/06/26 08:09:19;;;;;;;5.97;4.28;;;;;;;;;;5134810;27;20472;-88
2021/06/26 08:11:45;;;;;;;6.10;4.65;;;;;;;;;;5132033;27;20432;-87
2021/06/26 08:14:13;;;;;;;6.45;4.85;;;;;;;;;;5133183;27;20375;-89
2021/06/26 08:16:39;;;;;;;5.00;4.43;;;;;;;;;;5132788;27;20377;-88
2021/06/26 08:19:06;;;;;;;6.00;4.90;;;;;;;;;;5133608;27;20372;-88
2021/06/26 08:21:35;;;;;;;6.55;4.70;;;;;;;;;;5132989;27;20870;-87
2021/06/26 08:24:02;;;;;;;5.57;4.65;;;;;;;;;;5131332;27;20407;-88
2021/06/26 08:26:30;;;;;;;4.90;4.40;;;;;;;;;;5127914;27;20800;-87
2021/06/26 08:28:59;;;;;;;15.35;5.20;;;;;;;;;;5114572;27;20365;-87
2021/06/26 08:31:25;;;;;;;5.75;4.60;;;;;;;;;;5115313;27;20570;-87
2021/06/26 08:33:51;;;;;;;4.65;3.95;;;;;;;;;;5115386;27;20376;-86
2021/06/26 08:36:17;;;;;;;4.00;3.70;;;;;;;;;;5116673;27;20377;-88
2021/06/26 08:38:45;;;;;;;4.47;4.03;;;;;;;;;;5115162;27;20735;-88
2021/06/26 08:41:17;;;;;;;5.35;4.63;;;;;;;;;;5115250;27;20397;-88
2021/06/26 08:43:49;;;;;;;5.03;4.30;;;;;;;;;;5114992;27;20429;-89
2021/06/26 08:46:16;;;;;;;4.83;4.30;;;;;;;;;;5116291;27;20381;-88
2021/06/26 08:48:42;;;;;;;6.30;4.20;;;;;;;;;;5116119;27;20996;-88
2021/06/26 08:51:33;;;;;;;4.38;3.97;;;;;;;;;;5115637;27;20393;-88
2021/06/26 08:53:59;;;;;;;7.63;4.43;;;;;;;;;;5114975;27;20407;-87
2021/06/26 08:56:33;;;;;;;4.03;3.72;;;;;;;;;;5117701;27;20430;-89
2021/06/26 08:58:59;;;;;;;11.05;4.35;;;;;;;;;;5100127;27;20365;-89
2021/06/26 09:01:25;;;;;;;5.70;4.25;;;;;;;;;;5116168;27;20384;-87
2021/06/26 09:04:02;;;;;;;4.18;3.83;;;;;;;;;;5115764;27;20384;-87
2021/06/26 09:06:36;;;;;;;5.82;3.78;;;;;;;;;;5114710;27;20866;-89
2021/06/26 09:09:17;;;;;;;3.87;3.57;;;;;;;;;;5114302;27;20392;-88
2021/06/26 09:12:26;;;;;;;3.90;3.40;;;;;;;;;;5116860;27;20357;-88
2021/06/26 09:15:48;;;;;;;5.80;3.53;;;;;;;;;;5122660;27;20426;-88
2021/06/26 09:18:41;;;;;;;2.90;2.67;;;;;;;;;;5133612;27;20345;-86
2021/06/26 09:21:30;;;;;;;4.03;2.80;;;;;;;;;;5115647;27;20377;-86
2021/06/26 09:24:00;;;;;;;7.93;3.00;;;;;;;;;;5115704;27;20734;-88
2021/06/26 09:26:27;;;;;;;3.65;2.65;;;;;;;;;;5115782;27;20361;-89
2021/06/26 09:28:53;;;;;;;4.97;2.60;;;;;;;;;;5133667;27;20364;-90
2021/06/26 09:31:23;;;;;;;5.60;2.50;;;;;;;;;;5133028;27;20364;-89
2021/06/26 09:34:00;;;;;;;5.22;2.78;;;;;;;;;;5117501;27;20365;-86
2021/06/26 09:36:29;;;;;;;3.42;2.83;;;;;;;;;;5132057;27;20372;-87
2021/06/26 09:39:22;;;;;;;2.93;2.57;;;;;;;;;;5134480;27;20373;-87
2021/06/26 09:41:51;;;;;;;6.45;2.90;;;;;;;;;;5131243;27;20361;-86
2021/06/26 09:44:17;;;;;;;3.72;2.80;;;;;;;;;;5117607;27;20875;-84
2021/06/26 09:46:49;;;;;;;3.53;2.70;;;;;;;;;;5136414;27;20378;-91
2021/06/26 09:49:15;;;;;;;3.10;2.90;;;;;;;;;;5136602;27;20428;-89
2021/06/26 09:51:42;;;;;;;3.55;2.50;;;;;;;;;;5136501;27;20355;-88
2021/06/26 09:54:09;;;;;;;3.60;2.70;;;;;;;;;;5135926;27;20395;-88
2021/06/26 09:56:53;;;;;;;2.72;2.30;;;;;;;;;;5136750;27;20470;-88
2021/06/26 09:59:29;;;;;;;2.35;2.15;;;;;;;;;;5134933;27;20366;-87
2021/06/26 10:01:55;;;;;;;3.65;2.58;;;;;;;;;;5135852;27;20399;-89
2021/06/26 10:04:21;;;;;;;2.05;1.88;;;;;;;;;;5134561;27;20379;-88
2021/06/26 10:06:47;;;;;;;2.43;2.10;;;;;;;;;;5136548;27;20370;-86
2021/06/26 10:09:14;;;;;;;2.53;1.90;;;;;;;;;;5137255;27;20356;-88
2021/06/26 10:11:40;;;;;;;3.55;2.20;;;;;;;;;;5135042;27;20363;-88
2021/06/26 10:14:08;;;;;;;3.92;2.00;;;;;;;;;;5133882;27;20729;-88
2021/06/26 10:16:54;;;;;;;3.22;2.17;;;;;;;;;;5149713;27;20376;-87
2021/06/26 10:19:20;;;;;;;3.30;2.22;;;;;;;;;;5135899;27;20359;-88
2021/06/26 10:21:47;;;;;;;3.17;2.22;;;;;;;;;;5135484;27;20748;-90
2021/06/26 10:24:16;;;;;;;2.60;2.30;;;;;;;;;;5136187;27;20778;-90
2021/06/26 10:26:43;;;;;;;3.00;2.20;;;;;;;;;;5136791;27;20363;-88
2021/06/26 10:29:09;;;;;;;2.33;1.80;;;;;;;;;;5135159;27;20485;-88
2021/06/26 10:31:43;;;;;;;3.65;2.40;;;;;;;;;;5153666;27;20841;-87
2021/06/26 10:34:15;;;;;;;2.25;2.00;;;;;;;;;;5137438;27;20362;-88
2021/06/26 10:37:03;;;;;;;2.53;2.00;;;;;;;;;;5131756;27;20401;-90
2021/06/26 10:39:31;;;;;;;2.20;2.00;;;;;;;;;;5113564;27;20369;-89
2021/06/26 10:42:03;;;;;;;2.90;2.10;;;;;;;;;;5112888;27;20361;-90
2021/06/26 10:44:41;;;;;;;2.28;2.00;;;;;;;;;;5113841;28;20866;-85
2021/06/26 10:47:07;;;;;;;2.27;1.90;;;;;;;;;;5115717;27;20361;-87
2021/06/26 10:49:34;;;;;;;3.00;1.88;;;;;;;;;;5113883;27;20369;-88
2021/06/26 10:52:27;;;;;;;3.35;2.00;;;;;;;;;;5113673;27;20692;-91
2021/06/26 10:55:17;;;;;;;2.30;1.67;;;;;;;;;;5113557;28;20438;-86
2021/06/26 10:57:46;;;;;;;2.90;1.98;;;;;;;;;;5114177;28;20499;-88
2021/06/26 11:01:01;;;;;;;3.03;1.80;;;;;;;;;;5132179;27;20360;-89
2021/06/26 11:04:02;;;;;;;2.55;1.80;;;;;;;;;;5130537;27;20406;-91
2021/06/26 11:06:29;;;;;;;2.90;1.93;;;;;;;;;;5113747;27;20475;-87
2021/06/26 11:08:59;;;;;;;2.55;2.10;;;;;;;;;;5114495;28;21168;-89
2021/06/26 11:11:37;;;;;;;4.07;2.40;;;;;;;;;;5114281;28;20755;-87
2021/06/26 11:14:40;;;;;;;3.37;2.00;;;;;;;;;;5115916;28;20377;-89
2021/06/26 11:17:21;;;;;;;6.75;2.35;;;;;;;;;;5099027;27;20371;-91
2021/06/26 11:20:08;;;;;;;3.70;2.10;;;;;;;;;;5153613;27;20800;-89
2021/06/26 11:22:34;;;;;;;3.73;2.00;;;;;;;;;;5133682;27;20379;-88
2021/06/26 11:25:01;;;;;;;2.42;1.95;;;;;;;;;;5134153;27;20383;-86
2021/06/26 11:27:28;;;;;;;4.35;2.20;;;;;;;;;;5124183;27;20400;-89
2021/06/26 11:30:12;;;;;;;1.90;1.80;;;;;;;;;;5130935;28;20361;-88
2021/06/26 11:32:58;;;;;;;4.75;3.60;;;;;;;;;;5129135;28;20373;-90
2021/06/26 11:35:57;;;;;;;2.97;2.10;;;;;;;;;;5133174;27;20366;-89
2021/06/26 11:38:31;;;;;;;4.45;2.60;;;;;;;;;;5132194;27;20373;-87
2021/06/26 11:44:39;;;;;;;4.15;2.13;;;;;;;;;;5101372;27;20412;-88
2021/06/26 11:47:08;;;;;;;2.50;2.28;;;;;;;;;;5137401;27;20365;-88
2021/06/26 11:49:45;;;;;;;2.78;2.30;;;;;;;;;;5133257;27;20381;-88
2021/06/26 11:52:20;;;;;;;3.80;2.50;;;;;;;;;;5127685;27;20371;-88
2021/06/26 11:54:46;;;;;;;2.55;2.30;;;;;;;;;;5127757;27;20854;-88
2021/06/26 11:57:15;;;;;;;3.25;2.20;;;;;;;;;;5133853;27;20388;-86
2021/06/26 12:00:20;;;;;;;3.17;2.10;;;;;;;;;;5132242;27;20401;-92
2021/06/26 12:03:30;;;;;;;4.97;2.00;;;;;;;;;;5118236;28;20454;-92
2021/06/26 12:09:00;;;;;;;3.05;2.03;;;;;;;;;;5115937;28;20795;-89
2021/06/26 12:11:27;;;;;;;2.95;2.10;;;;;;;;;;5131261;27;20365;-87
2021/06/26 12:13:56;;;;;;;3.20;2.38;;;;;;;;;;5134854;27;20393;-87
2021/06/26 12:16:32;;;;;;;6.93;2.47;;;;;;;;;;5128693;27;20380;-89
2021/06/26 12:19:02;;;;;;;2.67;2.47;;;;;;;;;;5133267;27;20414;-86
2021/06/26 12:21:39;;;;;;;3.13;2.35;;;;;;;;;;5134517;27;20447;-89
2021/06/26 12:24:06;;;;;;;6.03;2.40;;;;;;;;;;5133047;27;20372;-87
2021/06/26 12:26:33;;;;;;;4.78;2.70;;;;;;;;;;5134997;27;20369;-91
2021/06/26 12:28:59;;;;;;;4.45;2.53;;;;;;;;;;5134603;27;20456;-88
2021/06/26 12:31:25;;;;;;;3.00;2.40;;;;;;;;;;5134740;27;20405;-89
2021/06/26 12:34:06;;;;;;;4.35;2.63;;;;;;;;;;5136037;27;20368;-88
2021/06/26 12:36:52;;;;;;;3.15;2.58;;;;;;;;;;5136006;27;20395;-88
2021/06/26 12:39:34;;;;;;;2.90;2.60;;;;;;;;;;5137451;27;20353;-88
2021/06/26 12:42:18;;;;;;;3.05;2.30;;;;;;;;;;5136698;27;20440;-87
2021/06/26 12:44:58;;;;;;;3.47;2.20;;;;;;;;;;5136361;27;20742;-86
2021/06/26 12:47:27;;;;;;;2.88;2.53;;;;;;;;;;5131385;27;20874;-84
2021/06/26 12:50:35;;;;;;;2.80;2.60;;;;;;;;;;5134306;27;20408;-91
2021/06/26 12:53:19;;;;;;;3.70;2.60;;;;;;;;;;5139929;27;20367;-87
2021/06/26 12:56:06;;;;;;;3.05;2.67;;;;;;;;;;5134991;27;20923;-86
2021/06/26 12:59:02;;;;;;;3.25;2.50;;;;;;;;;;5136776;27;20376;-89
2021/06/26 13:02:13;;;;;;;2.70;2.50;;;;;;;;;;5128155;27;20365;-87
2021/06/26 13:05:11;;;;;;;3.47;2.70;;;;;;;;;;5134451;27;20890;-86
2021/06/26 13:08:01;;;;;;;4.38;3.00;;;;;;;;;;5122619;27;20882;-87
2021/06/26 13:10:28;;;;;;;3.15;2.75;;;;;;;;;;5114352;27;20386;-89
2021/06/26 13:12:54;;;;;;;4.68;3.28;;;;;;;;;;5116215;27;20418;-87
2021/06/26 13:15:20;;;;;;;6.15;3.35;;;;;;;;;;5115079;27;20377;-88
2021/06/26 13:17:46;;;;;;;4.85;3.22;;;;;;;;;;5096203;27;20387;-87
2021/06/26 13:20:14;;;;;;;3.97;3.57;;;;;;;;;;5113203;27;20377;-86
2021/06/26 13:22:41;;;;;;;12.32;3.90;;;;;;;;;;5099488;27;20385;-89
2021/06/26 13:25:10;;;;;;;6.70;3.03;;;;;;;;;;5119902;27;20450;-88
2021/06/26 13:27:40;;;;;;;5.25;3.15;;;;;;;;;;5118406;27;20372;-88
2021/06/26 13:30:34;;;;;;;5.22;3.50;;;;;;;;;;5118982;27;20365;-87
2021/06/26 13:33:01;;;;;;;4.38;3.17;;;;;;;;;;5116774;27;20365;-89
2021/06/26 13:36:02;;;;;;;3.58;3.28;;;;;;;;;;5136406;27;20373;-89
2021/06/26 13:38:51;;;;;;;3.37;3.00;;;;;;;;;;5117419;27;20856;-89
2021/06/26 13:41:23;;;;;;;4.75;3.03;;;;;;;;;;5117313;27;20742;-90
2021/06/26 13:43:49;;;;;;;4.95;3.15;;;;;;;;;;5116618;27;20502;-84
2021/06/26 13:46:15;;;;;;;3.58;3.20;;;;;;;;;;5114598;27;20389;-87
2021/06/26 13:48:41;;;;;;;4.07;3.50;;;;;;;;;;5115818;27;20404;-88
2021/06/26 13:51:07;;;;;;;5.07;3.40;;;;;;;;;;5115826;27;20473;-87
2021/06/26 13:53:37;;;;;;;5.28;3.70;;;;;;;;;;5115503;27;20365;-89
2021/06/26 13:56:04;;;;;;;4.47;3.40;;;;;;;;;;5115108;27;20373;-89
2021/06/26 13:58:30;;;;;;;3.58;3.28;;;;;;;;;;5097322;27;20714;-89
2021/06/26 14:01:00;;;;;;;3.95;3.50;;;;;;;;;;5113992;27;20399;-87
2021/06/26 14:03:26;;;;;;;3.83;3.40;;;;;;;;;;5114314;27;20381;-89
2021/06/26 14:05:52;;;;;;;5.90;3.25;;;;;;;;;;5115197;27;20424;-88
2021/06/26 14:08:18;;;;;;;4.00;3.55;;;;;;;;;;5115352;27;20488;-87
2021/06/26 14:10:46;;;;;;;4.40;3.30;;;;;;;;;;5114381;27;20353;-86
2021/06/26 14:13:12;;;;;;;3.78;2.97;;;;;;;;;;5114592;27;20357;-87
2021/06/26 14:15:38;;;;;;;3.85;3.10;;;;;;;;;;5115372;27;20414;-87
2021/06/26 14:18:10;;;;;;;3.77;3.20;;;;;;;;;;5114980;27;20365;-88
2021/06/26 14:20:37;;;;;;;4.35;3.20;;;;;;;;;;5115582;27;20817;-87
2021/06/26 14:23:26;;;;;;;4.70;3.00;;;;;;;;;;5117038;27;20392;-88
2021/06/26 14:26:06;;;;;;;3.85;3.10;;;;;;;;;;5115833;27;20471;-89
2021/06/26 14:28:36;;;;;;;4.03;3.10;;;;;;;;;;5134975;27;20746;-87
2021/06/26 14:31:11;;;;;;;4.03;3.10;;;;;;;;;;5118337;27;20392;-91
2021/06/26 14:36:42;;;;;;;3.05;2.85;;;;;;;;;;5035007;28;20379;-87
2021/06/26 14:39:10;;;;;;;4.40;2.97;;;;;;;;;;5112704;27;22658;-89
2021/06/26 14:41:37;;;;;;;3.60;2.88;;;;;;;;;;5116218;27;20377;-87
2021/06/26 14:44:07;;;;;;;3.75;2.85;;;;;;;;;;5116420;27;20433;-90
2021/06/26 14:46:33;;;;;;;3.80;2.88;;;;;;;;;;5117804;27;20376;-89
2021/06/26 14:48:59;;;;;;;3.50;2.80;;;;;;;;;;5114535;27;20422;-88
2021/06/26 14:51:28;;;;;;;4.38;3.33;;;;;;;;;;5134020;27;20367;-90
2021/06/26 14:53:54;;;;;;;5.00;3.20;;;;;;;;;;5115386;27;20481;-88
2021/06/26 14:56:20;;;;;;;3.42;2.83;;;;;;;;;;5115757;27;20367;-87
2021/06/26 14:58:46;;;;;;;4.68;2.97;;;;;;;;;;5115079;27;20366;-87
2021/06/26 15:01:12;;;;;;;3.20;2.90;;;;;;;;;;5114277;28;20369;-87
2021/06/26 15:03:38;;;;;;;3.17;2.78;;;;;;;;;;5115096;28;20497;-86
2021/06/26 15:06:06;;;;;;;3.85;3.22;;;;;;;;;;5115753;27;20388;-89
2021/06/26 15:08:32;;;;;;;6.28;3.30;;;;;;;;;;5115632;27;20369;-89
2021/06/26 15:10:58;;;;;;;3.40;3.10;;;;;;;;;;5113878;28;20376;-87
2021/06/26 15:13:25;;;;;;;3.53;3.00;;;;;;;;;;5114820;28;20364;-86
2021/06/26 15:15:51;;;;;;;4.25;2.92;;;;;;;;;;5114954;28;20373;-87
2021/06/26 15:18:37;;;;;;;7.20;3.10;;;;;;;;;;5117669;28;20377;-88
2021/06/26 15:21:03;;;;;;;3.03;2.80;;;;;;;;;;5115039;28;20380;-89
2021/06/26 15:23:34;;;;;;;3.40;2.72;;;;;;;;;;5115525;28;20369;-89
2021/06/26 15:26:20;;;;;;;4.13;2.72;;;;;;;;;;5130107;27;20458;-86
2021/06/26 15:28:46;;;;;;;3.67;2.80;;;;;;;;;;5132932;27;20371;-89